createdAt,value
2022-11-20T00:00:09.804Z,3.21
2022-11-20T00:01:09.786Z,3.21
2022-11-20T00:02:09.849Z,3.20
2022-11-20T00:03:09.785Z,3.20
2022-11-20T00:04:09.768Z,3.20
2022-11-20T00:05:09.737Z,3.20
2022-11-20T00:06:09.726Z,3.21
2022-11-20T00:07:09.798Z,3.21
2022-11-20T00:08:09.802Z,3.23
2022-11-20T00:09:09.696Z,3.18
2022-11-20T00:10:09.755Z,3.18
2022-11-20T00:11:15.298Z,3.20
2022-11-20T00:12:10.686Z,3.20
2022-11-20T00:13:09.649Z,3.21
2022-11-20T00:14:09.652Z,3.21
2022-11-20T00:15:09.623Z,3.21
2022-11-20T00:16:09.631Z,3.20
2022-11-20T00:17:09.596Z,3.18
2022-11-20T00:18:09.595Z,3.21
2022-11-20T00:19:09.587Z,3.20
2022-11-20T00:20:09.678Z,3.18
2022-11-20T00:21:09.566Z,3.21
2022-11-20T00:22:09.627Z,3.21
2022-11-20T00:23:09.547Z,3.21
2022-11-20T00:24:09.635Z,3.20
2022-11-20T00:25:09.569Z,3.21
2022-11-20T00:26:09.571Z,3.21
2022-11-20T00:27:09.502Z,3.21
2022-11-20T00:28:09.527Z,3.21
2022-11-20T00:29:09.497Z,3.24
2022-11-20T00:30:13.664Z,3.21
2022-11-20T00:31:10.459Z,3.20
2022-11-20T00:32:09.468Z,3.21
2022-11-20T00:33:09.430Z,3.21
2022-11-20T00:34:09.473Z,3.21
2022-11-20T00:35:09.407Z,3.21
2022-11-20T00:36:09.466Z,3.23
2022-11-20T00:37:09.389Z,3.24
2022-11-20T00:38:09.618Z,3.24
2022-11-20T00:39:09.358Z,3.24
2022-11-20T00:40:09.357Z,3.24
2022-11-20T00:41:09.370Z,3.26
2022-11-20T00:42:09.343Z,3.26
2022-11-20T00:43:09.335Z,3.28
2022-11-20T00:44:09.338Z,3.24
2022-11-20T00:45:09.307Z,3.24
2022-11-20T00:46:09.339Z,3.23
2022-11-20T00:47:09.280Z,3.23
2022-11-20T00:48:09.280Z,3.23
2022-11-20T00:49:09.269Z,3.21
2022-11-20T00:50:09.520Z,3.23
2022-11-20T00:51:09.251Z,3.24
2022-11-20T00:52:09.320Z,3.24
2022-11-20T00:53:09.222Z,3.24
2022-11-20T00:54:09.199Z,3.23
2022-11-20T00:55:09.199Z,3.23
2022-11-20T00:56:09.333Z,3.23
2022-11-20T00:57:09.179Z,3.24
2022-11-20T00:58:14.168Z,3.23
2022-11-20T00:59:10.157Z,3.23
2022-11-20T01:00:09.280Z,3.23
2022-11-20T01:01:09.201Z,3.21
2022-11-20T01:02:09.225Z,3.21
2022-11-20T01:03:09.110Z,3.21
2022-11-20T01:04:09.102Z,3.21
2022-11-20T01:05:09.090Z,3.21
2022-11-20T01:06:09.419Z,3.23
2022-11-20T01:07:09.096Z,3.23
2022-11-20T01:08:09.142Z,3.23
2022-11-20T01:09:09.040Z,3.21
2022-11-20T01:10:09.031Z,3.20
2022-11-20T01:11:09.031Z,3.23
2022-11-20T01:12:09.100Z,3.21
2022-11-20T01:13:09.000Z,3.23
2022-11-20T01:14:08.995Z,3.21
2022-11-20T01:15:08.979Z,3.23
2022-11-20T01:16:09.060Z,3.23
2022-11-20T01:17:08.985Z,3.21
2022-11-20T01:18:09.017Z,3.20
2022-11-20T01:19:08.942Z,3.20
2022-11-20T01:20:08.935Z,3.20
2022-11-20T01:21:08.921Z,3.21
2022-11-20T01:22:08.941Z,3.23
2022-11-20T01:23:08.901Z,3.21
2022-11-20T01:24:09.062Z,3.23
2022-11-20T01:25:08.872Z,3.24
2022-11-20T01:26:08.972Z,3.23
2022-11-20T01:27:08.841Z,3.23
2022-11-20T01:28:08.866Z,3.24
2022-11-20T01:29:08.872Z,3.23
2022-11-20T01:30:08.823Z,3.24
2022-11-20T01:31:08.832Z,3.23
2022-11-20T01:32:08.836Z,3.24
2022-11-20T01:33:08.782Z,3.23
2022-11-20T01:34:08.860Z,3.23
2022-11-20T01:35:08.764Z,3.23
2022-11-20T01:36:08.809Z,3.23
2022-11-20T01:37:08.760Z,3.23
2022-11-20T01:38:08.751Z,3.21
2022-11-20T01:39:08.733Z,3.23
2022-11-20T01:40:08.764Z,3.24
2022-11-20T01:41:08.704Z,3.26
2022-11-20T01:42:10.310Z,3.26
2022-11-20T01:43:08.684Z,3.24
2022-11-20T01:44:08.782Z,3.24
2022-11-20T01:45:08.665Z,3.24
2022-11-20T01:46:08.731Z,3.23
2022-11-20T01:47:08.840Z,3.24
2022-11-20T01:48:08.722Z,3.24
2022-11-20T01:49:08.612Z,3.24
2022-11-20T01:50:08.841Z,3.24
2022-11-20T01:51:08.594Z,3.24
2022-11-20T01:52:08.677Z,3.24
2022-11-20T01:53:08.577Z,3.23
2022-11-20T01:54:08.587Z,3.23
2022-11-20T01:55:08.563Z,3.21
2022-11-20T01:56:08.588Z,3.21
2022-11-20T01:57:08.539Z,3.24
2022-11-20T01:58:08.614Z,3.24
2022-11-20T01:59:08.532Z,3.24
2022-11-20T02:00:08.502Z,3.24
2022-11-20T02:01:08.503Z,3.24
2022-11-20T02:02:08.573Z,3.24
2022-11-20T02:03:08.471Z,3.24
2022-11-20T02:04:08.694Z,3.26
2022-11-20T02:05:08.445Z,3.26
2022-11-20T02:06:08.565Z,3.24
2022-11-20T02:07:08.506Z,3.24
2022-11-20T02:08:08.578Z,3.26
2022-11-20T02:09:08.402Z,3.28
2022-11-20T02:10:08.404Z,3.26
2022-11-20T02:11:08.405Z,3.26
2022-11-20T02:12:08.454Z,3.24
2022-11-20T02:13:08.396Z,3.24
2022-11-20T02:14:08.576Z,3.24
2022-11-20T02:15:08.335Z,3.21
2022-11-20T02:16:08.436Z,3.21
2022-11-20T02:17:08.335Z,3.21
2022-11-20T02:18:08.336Z,3.21
2022-11-20T02:19:08.299Z,3.18
2022-11-20T02:20:08.615Z,3.17
2022-11-20T02:21:08.286Z,3.17
2022-11-20T02:22:08.658Z,3.14
2022-11-20T02:23:08.267Z,3.11
2022-11-20T02:24:08.535Z,3.13
2022-11-20T02:25:08.235Z,3.13
2022-11-20T02:26:08.336Z,3.13
2022-11-20T02:27:08.234Z,3.13
2022-11-20T02:28:08.428Z,3.14
2022-11-20T02:29:08.197Z,3.14
2022-11-20T02:30:08.210Z,3.13
2022-11-20T02:31:08.177Z,3.14
2022-11-20T02:32:08.176Z,3.14
2022-11-20T02:33:08.146Z,3.17
2022-11-20T02:34:08.207Z,3.15
2022-11-20T02:35:08.130Z,3.15
2022-11-20T02:36:08.346Z,3.17
2022-11-20T02:37:08.107Z,3.15
2022-11-20T02:38:08.116Z,3.17
2022-11-20T02:39:08.086Z,3.15
2022-11-20T02:40:08.178Z,3.17
2022-11-20T02:41:08.066Z,3.15
2022-11-20T02:42:08.272Z,3.15
2022-11-20T02:43:08.046Z,3.17
2022-11-20T02:44:08.197Z,3.15
2022-11-20T02:45:08.016Z,3.14
2022-11-20T02:46:08.016Z,3.14
2022-11-20T02:47:08.016Z,3.13
2022-11-20T02:48:07.987Z,3.13
2022-11-20T02:49:08.011Z,3.14
2022-11-20T02:50:08.087Z,3.13
2022-11-20T02:51:07.967Z,3.13
2022-11-20T02:52:08.128Z,3.14
2022-11-20T02:53:07.957Z,3.13
2022-11-20T02:54:08.057Z,3.14
2022-11-20T02:55:07.931Z,3.13
2022-11-20T02:56:08.027Z,3.11
2022-11-20T02:57:07.909Z,3.13
2022-11-20T02:58:07.919Z,3.10
2022-11-20T02:59:08.091Z,3.13
2022-11-20T03:00:07.919Z,3.11
2022-11-20T03:01:08.157Z,3.13
2022-11-20T03:02:07.888Z,3.14
2022-11-20T03:03:07.831Z,3.13
2022-11-20T03:04:07.930Z,3.13
2022-11-20T03:05:07.822Z,3.14
2022-11-20T03:06:07.801Z,3.14
2022-11-20T03:07:07.829Z,3.13
2022-11-20T03:08:07.863Z,3.14
2022-11-20T03:09:07.877Z,3.15
2022-11-20T03:10:07.869Z,3.17
2022-11-20T03:11:07.828Z,3.17
2022-11-20T03:12:08.006Z,3.18
2022-11-20T03:13:07.753Z,3.18
2022-11-20T03:14:07.773Z,3.17
2022-11-20T03:15:07.708Z,3.20
2022-11-20T03:16:07.759Z,3.18
2022-11-20T03:17:07.777Z,3.20
2022-11-20T03:18:07.698Z,3.20
2022-11-20T03:19:08.070Z,3.20
2022-11-20T03:20:07.651Z,3.20
2022-11-20T03:21:07.646Z,3.21
2022-11-20T03:22:07.681Z,3.20
2022-11-20T03:23:07.629Z,3.23
2022-11-20T03:24:07.677Z,3.21
2022-11-20T03:25:07.836Z,3.21
2022-11-20T03:26:07.598Z,3.21
2022-11-20T03:27:07.590Z,3.21
2022-11-20T03:28:07.597Z,3.23
2022-11-20T03:29:07.570Z,3.21
2022-11-20T03:30:07.714Z,3.23
2022-11-20T03:31:07.541Z,3.23
2022-11-20T03:32:07.560Z,3.21
2022-11-20T03:33:07.590Z,3.23
2022-11-20T03:34:07.500Z,3.26
2022-11-20T03:35:07.499Z,3.24
2022-11-20T03:36:07.527Z,3.24
2022-11-20T03:37:07.484Z,3.24
2022-11-20T03:38:07.512Z,3.23
2022-11-20T03:39:07.453Z,3.24
2022-11-20T03:40:07.534Z,3.23
2022-11-20T03:41:07.529Z,3.23
2022-11-20T03:42:07.531Z,3.24
2022-11-20T03:43:07.411Z,3.23
2022-11-20T03:44:07.400Z,3.24
2022-11-20T03:45:07.390Z,3.23
2022-11-20T03:46:07.464Z,3.23
2022-11-20T03:47:07.374Z,3.24
2022-11-20T03:48:07.389Z,3.21
2022-11-20T03:49:07.474Z,3.24
2022-11-20T03:50:07.342Z,3.24
2022-11-20T03:51:07.433Z,3.24
2022-11-20T03:52:07.382Z,3.24
2022-11-20T03:53:07.312Z,3.28
2022-11-20T03:54:07.414Z,3.28
2022-11-20T03:55:07.313Z,3.26
2022-11-20T03:56:07.325Z,3.26
2022-11-20T03:57:07.283Z,3.28
2022-11-20T03:58:07.330Z,3.28
2022-11-20T03:59:07.552Z,3.28
2022-11-20T04:00:07.391Z,3.28
2022-11-20T04:01:07.221Z,3.29
2022-11-20T04:02:07.403Z,3.29
2022-11-20T04:03:07.212Z,3.29
2022-11-20T04:04:07.359Z,3.28
2022-11-20T04:05:07.281Z,3.28
2022-11-20T04:06:07.161Z,3.28
2022-11-20T04:07:07.447Z,3.29
2022-11-20T04:08:07.207Z,3.28
2022-11-20T04:09:07.146Z,3.29
2022-11-20T04:10:07.232Z,3.28
2022-11-20T04:11:07.117Z,3.28
2022-11-20T04:12:07.122Z,3.28
2022-11-20T04:13:07.102Z,3.26
2022-11-20T04:14:07.114Z,3.26
2022-11-20T04:15:07.063Z,3.26
2022-11-20T04:16:07.071Z,3.26
2022-11-20T04:17:07.042Z,3.26
2022-11-20T04:18:07.088Z,3.26
2022-11-20T04:19:07.017Z,3.29
2022-11-20T04:20:07.056Z,3.29
2022-11-20T04:21:06.993Z,3.31
2022-11-20T04:22:07.035Z,3.29
2022-11-20T04:23:06.984Z,3.31
2022-11-20T04:24:07.083Z,3.28
2022-11-20T04:25:06.950Z,3.31
2022-11-20T04:26:06.956Z,3.28
2022-11-20T04:27:06.936Z,3.29
2022-11-20T04:28:07.113Z,3.29
2022-11-20T04:29:06.915Z,3.32
2022-11-20T04:30:06.922Z,3.31
2022-11-20T04:31:06.893Z,3.31
2022-11-20T04:32:06.962Z,3.31
2022-11-20T04:33:06.883Z,3.31
2022-11-20T04:34:06.983Z,3.29
2022-11-20T04:35:06.873Z,3.32
2022-11-20T04:36:06.935Z,3.32
2022-11-20T04:37:06.827Z,3.31
2022-11-20T04:38:07.073Z,3.32
2022-11-20T04:39:06.817Z,3.31
2022-11-20T04:40:06.835Z,3.32
2022-11-20T04:41:06.784Z,3.33
2022-11-20T04:42:06.976Z,3.32
2022-11-20T04:43:06.772Z,3.33
2022-11-20T04:44:06.864Z,3.33
2022-11-20T04:45:06.743Z,3.35
2022-11-20T04:46:06.734Z,3.33
2022-11-20T04:47:06.724Z,3.32
2022-11-20T04:48:06.735Z,3.32
2022-11-20T04:49:06.708Z,3.33
2022-11-20T04:50:06.802Z,3.32
2022-11-20T04:51:06.675Z,3.32
2022-11-20T04:52:06.714Z,3.33
2022-11-20T04:53:06.667Z,3.35
2022-11-20T04:54:06.713Z,3.32
2022-11-20T04:55:06.636Z,3.32
2022-11-20T04:56:06.672Z,3.32
2022-11-20T04:57:11.315Z,3.32
2022-11-20T04:58:07.755Z,3.31
2022-11-20T04:59:06.595Z,3.31
2022-11-20T05:00:06.656Z,3.29
2022-11-20T05:01:06.619Z,3.28
2022-11-20T05:02:06.655Z,3.29
2022-11-20T05:03:06.571Z,3.31
2022-11-20T05:04:06.678Z,3.32
2022-11-20T05:05:06.539Z,3.31
2022-11-20T05:06:06.538Z,3.31
2022-11-20T05:07:06.546Z,3.29
2022-11-20T05:08:07.182Z,3.31
2022-11-20T05:09:06.489Z,3.31
2022-11-20T05:10:06.638Z,3.32
2022-11-20T05:11:06.481Z,3.32
2022-11-20T05:12:06.623Z,3.32
2022-11-20T05:13:06.458Z,3.32
2022-11-20T05:14:06.479Z,3.35
2022-11-20T05:15:06.418Z,3.33
2022-11-20T05:16:06.452Z,3.35
2022-11-20T05:17:06.402Z,3.33
2022-11-20T05:18:06.590Z,3.35
2022-11-20T05:19:06.400Z,3.35
2022-11-20T05:20:06.387Z,3.33
2022-11-20T05:21:06.379Z,3.33
2022-11-20T05:22:06.432Z,3.33
2022-11-20T05:23:06.349Z,3.33
2022-11-20T05:24:06.399Z,3.31
2022-11-20T05:25:06.319Z,3.32
2022-11-20T05:26:06.387Z,3.32
2022-11-20T05:27:06.293Z,3.33
2022-11-20T05:28:06.380Z,3.32
2022-11-20T05:29:06.268Z,3.31
2022-11-20T05:30:06.351Z,3.31
2022-11-20T05:31:06.248Z,3.29
2022-11-20T05:32:06.278Z,3.29
2022-11-20T05:33:06.257Z,3.29
2022-11-20T05:34:06.369Z,3.28
2022-11-20T05:35:06.209Z,3.28
2022-11-20T05:36:06.274Z,3.29
2022-11-20T05:37:06.179Z,3.29
2022-11-20T05:38:06.327Z,3.29
2022-11-20T05:39:06.180Z,3.28
2022-11-20T05:40:06.160Z,3.28
2022-11-20T05:41:06.139Z,3.28
2022-11-20T05:42:06.130Z,3.28
2022-11-20T05:43:06.129Z,3.29
2022-11-20T05:44:06.250Z,3.29
2022-11-20T05:45:06.099Z,3.28
2022-11-20T05:46:06.169Z,3.31
2022-11-20T05:47:06.073Z,3.31
2022-11-20T05:48:06.157Z,3.31
2022-11-20T05:49:06.057Z,3.31
2022-11-20T05:50:06.150Z,3.32
2022-11-20T05:51:06.041Z,3.33
2022-11-20T05:52:06.186Z,3.35
2022-11-20T05:53:06.030Z,3.35
2022-11-20T05:54:06.173Z,3.39
2022-11-20T05:55:06.000Z,3.36
2022-11-20T05:56:06.051Z,3.36
2022-11-20T05:57:05.970Z,3.39
2022-11-20T05:58:06.052Z,3.40
2022-11-20T05:59:05.961Z,3.42
2022-11-20T06:00:06.204Z,3.45
2022-11-20T06:01:05.930Z,3.45
2022-11-20T06:02:05.920Z,3.48
2022-11-20T06:03:05.984Z,3.51
2022-11-20T06:04:05.950Z,3.51
2022-11-20T06:05:05.901Z,3.52
2022-11-20T06:06:06.014Z,3.51
2022-11-20T06:07:05.951Z,3.54
2022-11-20T06:08:05.894Z,3.54
2022-11-20T06:09:05.861Z,3.54
2022-11-20T06:10:05.844Z,3.52
2022-11-20T06:11:05.841Z,3.52
2022-11-20T06:12:05.871Z,3.51
2022-11-20T06:13:05.801Z,3.51
2022-11-20T06:14:05.881Z,3.51
2022-11-20T06:15:05.791Z,3.50
2022-11-20T06:16:05.772Z,3.48
2022-11-20T06:17:05.753Z,3.48
2022-11-20T06:18:05.754Z,3.48
2022-11-20T06:19:05.751Z,3.48
2022-11-20T06:20:05.743Z,3.48
2022-11-20T06:21:05.717Z,3.48
2022-11-20T06:22:05.792Z,3.48
2022-11-20T06:23:05.702Z,3.48
2022-11-20T06:24:05.848Z,3.48
2022-11-20T06:25:05.683Z,3.47
2022-11-20T06:26:05.665Z,3.47
2022-11-20T06:27:05.651Z,3.48
2022-11-20T06:28:05.652Z,3.47
2022-11-20T06:29:05.645Z,3.47
2022-11-20T06:30:05.655Z,3.47
2022-11-20T06:31:05.604Z,3.47
2022-11-20T06:32:05.605Z,3.47
2022-11-20T06:33:05.634Z,3.45
2022-11-20T06:34:05.594Z,3.42
2022-11-20T06:35:05.567Z,3.43
2022-11-20T06:36:10.437Z,3.42
2022-11-20T06:37:06.537Z,3.43
2022-11-20T06:38:05.546Z,3.42
2022-11-20T06:39:05.536Z,3.43
2022-11-20T06:40:06.010Z,3.43
2022-11-20T06:41:05.524Z,3.43
2022-11-20T06:42:05.495Z,3.45
2022-11-20T06:43:05.475Z,3.45
2022-11-20T06:44:05.487Z,3.47
2022-11-20T06:45:05.464Z,3.47
2022-11-20T06:46:05.534Z,3.47
2022-11-20T06:47:05.498Z,3.50
2022-11-20T06:48:05.434Z,3.50
2022-11-20T06:49:05.423Z,3.51
2022-11-20T06:50:05.473Z,3.51
2022-11-20T06:51:05.436Z,3.51
2022-11-20T06:52:05.385Z,3.52
2022-11-20T06:53:05.383Z,3.52
2022-11-20T06:54:05.394Z,3.52
2022-11-20T06:55:05.355Z,3.52
2022-11-20T06:56:05.397Z,3.52
2022-11-20T06:57:05.345Z,3.54
2022-11-20T06:58:05.324Z,3.52
2022-11-20T06:59:05.324Z,3.54
2022-11-20T07:00:05.336Z,3.54
2022-11-20T07:01:05.439Z,3.51
2022-11-20T07:02:05.279Z,3.51
2022-11-20T07:03:05.276Z,3.51
2022-11-20T07:04:05.284Z,3.51
2022-11-20T07:05:05.257Z,3.51
2022-11-20T07:06:05.240Z,3.52
2022-11-20T07:07:05.286Z,3.52
2022-11-20T07:08:05.215Z,3.51
2022-11-20T07:09:09.883Z,3.54
2022-11-20T07:10:06.260Z,3.51
2022-11-20T07:11:05.217Z,3.51
2022-11-20T07:12:05.213Z,3.52
2022-11-20T07:13:05.167Z,3.51
2022-11-20T07:14:05.166Z,3.52
2022-11-20T07:15:05.139Z,3.51
2022-11-20T07:16:05.149Z,3.51
2022-11-20T07:17:05.120Z,3.51
2022-11-20T07:18:05.189Z,3.50
2022-11-20T07:19:05.117Z,3.48
2022-11-20T07:20:05.106Z,3.48
2022-11-20T07:21:05.132Z,3.45
2022-11-20T07:22:05.069Z,3.47
2022-11-20T07:23:05.069Z,3.45
2022-11-20T07:24:05.069Z,3.47
2022-11-20T07:25:05.047Z,3.48
2022-11-20T07:26:05.054Z,3.50
2022-11-20T07:27:05.016Z,3.48
2022-11-20T07:28:05.048Z,3.48
2022-11-20T07:29:04.999Z,3.48
2022-11-20T07:30:05.102Z,3.50
2022-11-20T07:31:04.979Z,3.50
2022-11-20T07:32:04.976Z,3.48
2022-11-20T07:33:04.955Z,3.50
2022-11-20T07:34:04.958Z,3.51
2022-11-20T07:35:04.932Z,3.50
2022-11-20T07:36:04.929Z,3.50
2022-11-20T07:37:10.052Z,3.50
2022-11-20T07:38:05.920Z,3.50
2022-11-20T07:39:05.028Z,3.50
2022-11-20T07:40:05.013Z,3.48
2022-11-20T07:41:04.888Z,3.47
2022-11-20T07:42:05.007Z,3.48
2022-11-20T07:43:04.849Z,3.50
2022-11-20T07:44:04.877Z,3.48
2022-11-20T07:45:04.821Z,3.48
2022-11-20T07:46:04.915Z,3.50
2022-11-20T07:47:04.809Z,3.48
2022-11-20T07:48:04.814Z,3.50
2022-11-20T07:49:05.026Z,3.50
2022-11-20T07:50:04.795Z,3.50
2022-11-20T07:51:04.759Z,3.50
2022-11-20T07:52:05.521Z,3.51
2022-11-20T07:53:04.749Z,3.51
2022-11-20T07:54:04.822Z,3.51
2022-11-20T07:55:04.726Z,3.54
2022-11-20T07:56:04.712Z,3.54
2022-11-20T07:57:04.809Z,3.55
2022-11-20T07:58:04.718Z,3.57
2022-11-20T07:59:04.712Z,3.58
2022-11-20T08:00:04.691Z,3.60
2022-11-20T08:01:04.704Z,3.61
2022-11-20T08:02:04.658Z,3.60
2022-11-20T08:03:04.640Z,3.60
2022-11-20T08:04:04.642Z,3.58
2022-11-20T08:05:04.621Z,3.58
2022-11-20T08:06:04.615Z,3.61
2022-11-20T08:07:04.639Z,3.60
2022-11-20T08:08:04.621Z,3.62
2022-11-20T08:09:04.572Z,3.66
2022-11-20T08:10:04.599Z,3.66
2022-11-20T08:11:04.542Z,3.66
2022-11-20T08:12:04.563Z,3.65
2022-11-20T08:13:04.541Z,3.68
2022-11-20T08:14:04.520Z,3.69
2022-11-20T08:15:08.423Z,3.69
2022-11-20T08:16:05.543Z,3.70
2022-11-20T08:17:04.526Z,3.72
2022-11-20T08:18:29.461Z,3.72
2022-11-20T08:19:05.474Z,3.69
2022-11-20T08:20:04.503Z,3.68
2022-11-20T08:21:04.455Z,3.66
2022-11-20T08:22:04.453Z,3.66
2022-11-20T08:23:04.413Z,3.66
2022-11-20T08:24:04.414Z,3.70
2022-11-20T08:25:04.402Z,3.72
2022-11-20T08:26:04.443Z,3.76
2022-11-20T08:27:04.373Z,3.79
2022-11-20T08:28:12.945Z,3.80
2022-11-20T08:29:05.367Z,3.86
2022-11-20T08:30:04.401Z,3.87
2022-11-20T08:31:04.325Z,3.87
2022-11-20T08:32:04.366Z,3.87
2022-11-20T08:33:04.302Z,3.88
2022-11-20T08:34:08.916Z,3.88
2022-11-20T08:35:05.294Z,3.88
2022-11-20T08:36:04.292Z,3.88
2022-11-20T08:37:04.274Z,3.91
2022-11-20T08:38:04.335Z,3.94
2022-11-20T08:39:04.250Z,3.94
2022-11-20T08:40:04.294Z,3.93
2022-11-20T08:41:04.238Z,3.94
2022-11-20T08:42:04.225Z,3.94
2022-11-20T08:43:04.203Z,4.02
2022-11-20T08:44:04.282Z,4.00
2022-11-20T08:45:04.251Z,3.97
2022-11-20T08:46:04.165Z,4.00
2022-11-20T08:47:04.223Z,3.97
2022-11-20T08:48:04.579Z,3.94
2022-11-20T08:49:04.130Z,3.94
2022-11-20T08:50:04.175Z,3.94
2022-11-20T08:51:04.117Z,3.94
2022-11-20T08:52:04.149Z,3.96
2022-11-20T08:53:04.090Z,3.98
2022-11-20T08:54:04.167Z,4.02
2022-11-20T08:55:04.068Z,4.04
2022-11-20T08:56:04.129Z,4.00
2022-11-20T08:57:04.039Z,3.97
2022-11-20T08:58:04.126Z,4.00
2022-11-20T09:00:06.779Z,4.06
2022-11-20T09:01:04.080Z,4.05
2022-11-20T09:02:04.106Z,4.06
2022-11-20T09:03:03.972Z,4.06
2022-11-20T09:04:03.994Z,4.08
2022-11-20T09:05:03.971Z,4.09
2022-11-20T09:06:03.947Z,4.08
2022-11-20T09:07:03.975Z,4.09
2022-11-20T09:08:03.946Z,4.06
2022-11-20T09:09:06.932Z,4.05
2022-11-20T09:10:23.157Z,4.09
2022-11-20T09:11:04.898Z,4.14
2022-11-20T09:12:03.878Z,4.20
2022-11-20T09:13:03.862Z,4.24
2022-11-20T09:14:03.948Z,4.24
2022-11-20T09:15:03.852Z,4.20
2022-11-20T09:16:03.898Z,4.18
2022-11-20T09:17:03.831Z,4.27
2022-11-20T09:18:03.849Z,4.30
2022-11-20T09:20:04.892Z,4.32
2022-11-20T09:21:03.796Z,4.32
2022-11-20T09:22:03.801Z,4.33
2022-11-20T09:23:03.757Z,4.36
2022-11-20T09:24:03.767Z,4.34
2022-11-20T09:25:03.739Z,4.34
2022-11-20T09:26:03.734Z,4.34
2022-11-20T09:27:03.710Z,4.36
2022-11-20T09:28:03.717Z,4.34
2022-11-20T09:29:03.690Z,4.30
2022-11-20T09:30:03.700Z,4.32
2022-11-20T09:31:03.661Z,4.36
2022-11-20T09:32:03.673Z,4.41
2022-11-20T09:33:03.640Z,4.44
2022-11-20T09:34:03.974Z,4.51
2022-11-20T09:35:03.635Z,4.54
2022-11-20T09:36:03.798Z,4.59
2022-11-20T09:37:06.408Z,4.59
2022-11-20T09:38:03.661Z,4.62
2022-11-20T09:39:03.572Z,4.66
2022-11-20T09:40:03.583Z,4.72
2022-11-20T09:41:03.560Z,4.78
2022-11-20T09:42:03.841Z,4.84
2022-11-20T09:43:03.532Z,4.89
2022-11-20T09:44:03.901Z,4.89
2022-11-20T09:45:03.533Z,4.94
2022-11-20T09:46:03.791Z,5.00
2022-11-20T09:47:03.501Z,5.06
2022-11-20T09:48:03.902Z,4.99
2022-11-20T09:49:03.473Z,5.02
2022-11-20T09:50:03.502Z,5.02
2022-11-20T09:51:03.444Z,5.09
2022-11-20T09:52:03.445Z,5.15
2022-11-20T09:53:03.422Z,5.20
2022-11-20T09:54:03.487Z,5.27
2022-11-20T09:55:03.413Z,5.30
2022-11-20T09:56:03.433Z,5.35
2022-11-20T09:57:03.400Z,5.28
2022-11-20T09:58:03.576Z,5.17
2022-11-20T09:59:03.365Z,5.18
2022-11-20T10:00:03.486Z,5.24
2022-11-20T10:01:03.399Z,5.28
2022-11-20T10:02:03.333Z,5.31
2022-11-20T10:03:03.324Z,5.30
2022-11-20T10:04:03.507Z,5.30
2022-11-20T10:05:03.306Z,5.28
2022-11-20T10:06:03.536Z,5.25
2022-11-20T10:08:04.328Z,5.36
2022-11-20T10:09:03.245Z,5.30
2022-11-20T10:10:03.301Z,5.33
2022-11-20T10:11:03.255Z,5.33
2022-11-20T10:12:03.299Z,5.31
2022-11-20T10:13:03.215Z,5.28
2022-11-20T10:14:03.365Z,5.25
2022-11-20T10:15:03.188Z,5.27
2022-11-20T10:16:03.208Z,5.28
2022-11-20T10:17:03.172Z,5.31
2022-11-20T10:18:03.197Z,5.36
2022-11-20T10:19:03.149Z,5.35
2022-11-20T10:20:03.153Z,5.35
2022-11-20T10:21:03.160Z,5.33
2022-11-20T10:22:03.344Z,5.33
2022-11-20T10:23:03.107Z,5.27
2022-11-20T10:24:03.257Z,5.27
2022-11-20T10:25:03.076Z,5.33
2022-11-20T10:26:03.069Z,5.35
2022-11-20T10:27:03.059Z,5.40
2022-11-20T10:28:03.349Z,5.40
2022-11-20T10:29:07.545Z,5.42
2022-11-20T10:30:04.040Z,5.43
2022-11-20T10:31:03.039Z,5.43
2022-11-20T10:32:03.220Z,5.45
2022-11-20T10:33:02.989Z,5.49
2022-11-20T10:34:12.007Z,5.49
2022-11-20T10:35:03.970Z,5.49
2022-11-20T10:36:02.992Z,5.49
2022-11-20T10:37:02.940Z,5.49
2022-11-20T10:38:02.949Z,5.48
2022-11-20T10:39:02.940Z,5.46
2022-11-20T10:40:02.918Z,5.49
2022-11-20T10:41:02.930Z,5.54
2022-11-20T10:42:02.897Z,5.49
2022-11-20T10:43:02.895Z,5.48
2022-11-20T10:44:02.973Z,5.49
2022-11-20T10:45:06.155Z,5.49
2022-11-20T10:46:02.985Z,5.46
2022-11-20T10:47:02.851Z,5.43
2022-11-20T10:48:02.993Z,5.42
2022-11-20T10:49:02.832Z,5.43
2022-11-20T10:50:02.877Z,5.46
2022-11-20T10:51:02.816Z,5.49
2022-11-20T10:52:02.772Z,5.54
2022-11-20T10:53:02.772Z,5.53
2022-11-20T10:54:02.766Z,5.53
2022-11-20T10:55:02.752Z,5.54
2022-11-20T10:56:02.885Z,5.56
2022-11-20T10:57:02.723Z,5.57
2022-11-20T10:58:02.716Z,5.56
2022-11-20T10:59:02.706Z,5.57
2022-11-20T11:00:02.757Z,5.58
2022-11-20T11:01:02.777Z,5.60
2022-11-20T11:02:03.427Z,5.60
2022-11-20T11:03:02.666Z,5.57
2022-11-20T11:04:02.836Z,5.56
2022-11-20T11:05:02.653Z,5.54
2022-11-20T11:06:02.684Z,5.56
2022-11-20T11:07:02.694Z,5.58
2022-11-20T11:08:02.632Z,5.61
2022-11-20T11:09:02.613Z,5.64
2022-11-20T11:10:02.629Z,5.64
2022-11-20T11:11:02.600Z,5.65
2022-11-20T11:12:06.952Z,5.67
2022-11-20T11:13:02.555Z,5.68
2022-11-20T11:14:02.585Z,5.68
2022-11-20T11:15:02.536Z,5.68
2022-11-20T11:16:02.534Z,5.68
2022-11-20T11:17:02.509Z,5.71
2022-11-20T11:18:02.506Z,5.68
2022-11-20T11:19:02.483Z,5.68
2022-11-20T11:20:02.537Z,5.71
2022-11-20T11:21:02.478Z,5.75
2022-11-20T11:22:02.602Z,5.78
2022-11-20T11:23:02.444Z,5.79
2022-11-20T11:24:19.645Z,5.79
2022-11-20T11:25:03.437Z,5.79
2022-11-20T11:26:02.427Z,5.81
2022-11-20T11:27:02.406Z,5.82
2022-11-20T11:28:02.413Z,5.81
2022-11-20T11:29:02.386Z,5.82
2022-11-20T11:30:02.429Z,5.85
2022-11-20T11:31:02.365Z,5.85
2022-11-20T11:32:02.410Z,5.89
2022-11-20T11:33:02.339Z,5.85
2022-11-20T11:34:02.457Z,5.86
2022-11-20T11:35:02.310Z,5.85
2022-11-20T11:36:02.376Z,5.85
2022-11-20T11:37:02.279Z,5.86
2022-11-20T11:38:02.288Z,5.83
2022-11-20T11:39:02.268Z,5.83
2022-11-20T11:40:23.396Z,5.79
2022-11-20T11:41:03.260Z,5.78
2022-11-20T11:42:02.301Z,5.78
2022-11-20T11:43:02.219Z,5.81
2022-11-20T11:44:02.315Z,5.82
2022-11-20T11:45:02.199Z,5.81
2022-11-20T11:46:02.306Z,5.81
2022-11-20T11:47:02.222Z,5.83
2022-11-20T11:48:02.234Z,5.81
2022-11-20T11:49:02.153Z,5.79
2022-11-20T11:50:02.215Z,5.81
2022-11-20T11:51:02.131Z,5.82
2022-11-20T11:52:02.238Z,5.82
2022-11-20T11:53:02.114Z,5.83
2022-11-20T11:54:02.139Z,5.85
2022-11-20T11:55:05.905Z,5.85
2022-11-20T11:56:03.081Z,5.86
2022-11-20T11:57:02.087Z,5.86
2022-11-20T11:58:02.082Z,5.86
2022-11-20T11:59:02.041Z,5.89
2022-11-20T12:00:02.216Z,5.90
2022-11-20T12:01:02.024Z,5.91
2022-11-20T12:02:02.173Z,5.93
2022-11-20T12:03:02.005Z,5.97
2022-11-20T12:04:02.141Z,6.00
2022-11-20T12:05:01.982Z,6.00
2022-11-20T12:06:02.014Z,6.01
2022-11-20T12:07:13.205Z,6.03
2022-11-20T12:08:05.894Z,6.03
2022-11-20T12:09:02.934Z,6.03
2022-11-20T12:10:01.935Z,6.03
2022-11-20T12:11:01.914Z,6.00
2022-11-20T12:12:01.913Z,6.01
2022-11-20T12:13:01.890Z,6.03
2022-11-20T12:14:01.986Z,6.04
2022-11-20T12:15:01.875Z,6.03
2022-11-20T12:16:01.857Z,6.03
2022-11-20T12:17:01.867Z,6.04
2022-11-20T12:18:01.847Z,6.06
2022-11-20T12:19:01.835Z,6.09
2022-11-20T12:20:01.814Z,6.11
2022-11-20T12:21:01.815Z,6.12
2022-11-20T12:22:04.892Z,6.14
2022-11-20T12:23:01.791Z,6.17
2022-11-20T12:24:01.775Z,6.18
2022-11-20T12:25:01.778Z,6.19
2022-11-20T12:26:01.795Z,6.21
2022-11-20T12:27:01.777Z,6.27
2022-11-20T12:28:01.786Z,6.27
2022-11-20T12:29:01.786Z,6.33
2022-11-20T12:30:01.719Z,6.34
2022-11-20T12:31:01.706Z,6.33
2022-11-20T12:32:01.813Z,6.34
2022-11-20T12:33:01.669Z,6.36
2022-11-20T12:34:01.711Z,6.36
2022-11-20T12:35:01.656Z,6.34
2022-11-20T12:36:01.647Z,6.38
2022-11-20T12:37:01.638Z,6.40
2022-11-20T12:38:01.619Z,6.40
2022-11-20T12:39:01.608Z,6.43
2022-11-20T12:40:01.603Z,6.44
2022-11-20T12:41:01.588Z,6.48
2022-11-20T12:42:01.588Z,6.44
2022-11-20T12:43:01.560Z,6.43
2022-11-20T12:44:01.561Z,6.43
2022-11-20T12:45:01.543Z,6.41
2022-11-20T12:46:01.537Z,6.41
2022-11-20T12:47:01.536Z,6.41
2022-11-20T12:48:01.549Z,6.43
2022-11-20T12:49:01.612Z,6.46
2022-11-20T12:50:01.494Z,6.48
2022-11-20T12:51:14.671Z,6.49
2022-11-20T12:52:02.506Z,6.46
2022-11-20T12:53:01.450Z,6.48
2022-11-20T12:54:01.525Z,6.46
2022-11-20T12:55:01.431Z,6.46
2022-11-20T12:56:01.431Z,6.46
2022-11-20T12:57:03.941Z,6.48
2022-11-20T12:58:01.402Z,6.48
2022-11-20T12:59:01.392Z,6.48
2022-11-20T13:00:01.392Z,6.46
2022-11-20T13:01:01.424Z,6.44
2022-11-20T13:02:01.371Z,6.41
2022-11-20T13:03:01.375Z,6.41
2022-11-20T13:04:02.502Z,6.43
2022-11-20T13:05:01.453Z,6.40
2022-11-20T13:06:01.322Z,6.43
2022-11-20T13:07:01.613Z,6.44
2022-11-20T13:08:01.293Z,6.46
2022-11-20T13:09:01.291Z,6.49
2022-11-20T13:10:01.275Z,6.51
2022-11-20T13:11:01.254Z,6.52
2022-11-20T13:12:01.268Z,6.54
2022-11-20T13:13:01.244Z,6.54
2022-11-20T13:14:01.232Z,6.55
2022-11-20T13:15:01.223Z,6.55
2022-11-20T13:16:01.204Z,6.55
2022-11-20T13:17:05.900Z,6.56
2022-11-20T13:18:02.251Z,6.58
2022-11-20T13:19:01.183Z,6.61
2022-11-20T13:20:01.156Z,6.62
2022-11-20T13:21:01.156Z,6.64